Terminal Aerodrome Forecast
Issued by NWS

Home | Current Version | Previous Version | Text Only | Print | Product List | Glossary On
Versions: 1 2 3 4 5 6 7 8 9 10 11 12 13 14 15
312
FTUS44 KJAN 141722
TAFGTR
TAF
KGTR 141722Z 1418/1518 17012KT P6SM BKN045 OVC080
     FM150700 16013KT P6SM OVC025
     FM151100 16013KT P6SM OVC015
     FM151700 18015KT 4SM -RA BR OVC007=

USA.gov is the U.S. government's official web portal to all federal, state and local government web resources and services.